Sudlersville, Maryland
Current Conditions -  °F | °C
As of 10:58 PM on Saturday 25 Oct 2014 (Local Time) from KDOV Reporting Station
Clear Clear  
Wind Chill: 56°   Ceiling: Unl
Heat Index: 56°   Visibility: 9mi
Dew Point: 47°   Wind: 9mph
Humidity: 73%   Direction: 210°SSW
Pressure: 29.68"   Gusts: NA
Location:  39.19°N, 75.86°W
Report Text: KDOV 260258Z AUTO 21008KT 9SM R19/5500FT CLR 13/09 A2968 RMK AO2 SLP054 T01320085 57010
Loading
Personal Weather Stations






























Interactive Weather Map
Tropical Storm Tracking
New forecast layout! Learn more

10-Day Weather Forecast

Advertisements
Track Severe Weather on mobile